Time;durP1;ratioP1;P1;durP2;ratioP2;P2;SDS_P1;SDS_P2;PMS_P1;PMS_P2;Temp;Humidity;BMP_temperature;BMP_pressure;BME280_temperature;BME280_humidity;BME280_pressure;Samples;Min_cycle;Max_cycle;Signal;HPM_P1;HPM_P2
2022/08/09 00:00:01;;;;;;;;;5.25;5.25;;;;;23.25;42.95;102113.38;5040720;28;45383;-71
2022/08/09 00:02:27;;;;;;;;;6.75;6.75;;;;;23.24;43.13;102114.38;5040738;28;45362;-71
2022/08/09 00:04:52;;;;;;;;;6.25;6.25;;;;;23.30;43.21;102121.91;5040787;28;45423;-69
2022/08/09 00:07:18;;;;;;;;;8.25;7.00;;;;;23.35;43.29;102111.53;5039049;28;45549;-69
2022/08/09 00:09:43;;;;;;;;;7.00;7.00;;;;;23.35;43.25;102121.44;5039777;28;45436;-71
2022/08/09 00:12:09;;;;;;;;;8.25;7.00;;;;;23.31;43.41;102114.66;5040993;28;45437;-70
2022/08/09 00:14:35;;;;;;;;;6.50;6.25;;;;;23.26;43.30;102130.38;5041048;28;45518;-69
2022/08/09 00:17:01;;;;;;;;;6.00;6.00;;;;;23.24;43.68;102124.28;5040019;28;45989;-70
2022/08/09 00:19:27;;;;;;;;;8.50;6.75;;;;;23.21;43.22;102120.00;5040123;28;45296;-72
2022/08/09 00:21:52;;;;;;;;;8.00;7.00;;;;;23.21;43.42;102116.47;5040740;28;45624;-70
2022/08/09 00:24:18;;;;;;;;;10.25;6.75;;;;;23.18;43.71;102117.63;5040772;28;45196;-71
2022/08/09 00:26:44;;;;;;;;;8.00;7.00;;;;;23.25;43.81;102108.00;5040556;28;46197;-70
2022/08/09 00:29:09;;;;;;;;;6.25;6.25;;;;;23.23;43.95;102103.78;5040303;28;45422;-70
2022/08/09 00:31:35;;;;;;;;;7.25;6.00;;;;;23.18;43.72;102097.94;5040672;28;45311;-70
2022/08/09 00:34:00;;;;;;;;;5.75;5.75;;;;;23.11;44.21;102103.03;5040652;28;45477;-71
2022/08/09 00:36:26;;;;;;;;;6.25;5.75;;;;;23.11;44.05;102103.03;5049207;28;45959;-69
2022/08/09 00:38:52;;;;;;;;;7.75;7.00;;;;;23.10;44.42;102109.41;5060504;28;45318;-70
2022/08/09 00:41:21;;;;;;;;;7.00;7.00;;;;;23.05;44.34;102103.59;5055663;28;45405;-70
2022/08/09 00:43:48;;;;;;;;;5.00;4.00;;;;;23.04;44.33;102101.88;5040338;28;45238;-68
2022/08/09 00:46:14;;;;;;;;;6.25;6.00;;;;;22.97;44.27;102101.59;5045227;28;46318;-71
2022/08/09 00:48:40;;;;;;;;;8.25;7.00;;;;;22.99;44.59;102106.84;5039408;28;45398;-69
2022/08/09 00:51:08;;;;;;;;;5.50;5.00;;;;;22.96;44.54;102107.09;5048938;28;45470;-70
2022/08/09 00:53:35;;;;;;;;;5.75;5.75;;;;;22.90;44.62;102111.19;5029981;28;45428;-69
2022/08/09 00:56:03;;;;;;;;;5.75;5.00;;;;;22.93;45.16;102108.25;5050438;28;45900;-71
2022/08/09 00:58:34;;;;;;;;;5.50;5.50;;;;;22.92;44.79;102103.00;5040050;28;45375;-70
2022/08/09 01:01:04;;;;;;;;;7.75;6.75;;;;;22.78;45.09;102107.75;5053893;28;45272;-66
2022/08/09 01:03:35;;;;;;;;;4.50;4.00;;;;;22.71;45.41;102113.78;5039880;28;45292;-70
2022/08/09 01:06:23;;;;;;;;;7.75;5.75;;;;;22.67;45.37;102113.25;5040138;28;45339;-70
2022/08/09 01:09:07;;;;;;;;;5.75;5.75;;;;;22.69;45.62;102108.56;5040384;28;45462;-68
2022/08/09 01:11:38;;;;;;;;;6.00;6.00;;;;;22.62;45.84;102099.34;5043692;28;45501;-70
2022/08/09 01:14:12;;;;;;;;;7.00;6.00;;;;;22.57;45.80;102109.63;5043830;28;45320;-71
2022/08/09 01:16:43;;;;;;;;;7.50;6.00;;;;;22.55;45.79;102100.88;5043310;28;45395;-69
2022/08/09 01:19:26;;;;;;;;;8.25;7.00;;;;;22.57;46.12;102101.59;5043603;28;45244;-68
2022/08/09 01:22:20;;;;;;;;;4.75;4.25;;;;;22.50;46.19;102108.47;5047673;28;45253;-68
2022/08/09 01:25:04;;;;;;;;;6.50;5.50;;;;;22.47;46.24;102106.94;5043176;28;45352;-63
2022/08/09 01:27:32;;;;;;;;;5.50;5.50;;;;;22.45;46.58;102105.38;5054002;28;45303;-63
2022/08/09 01:30:01;;;;;;;;;5.00;5.00;;;;;22.44;46.18;102109.03;5055291;28;45510;-63
2022/08/09 01:32:36;;;;;;;;;5.50;4.75;;;;;22.43;46.50;102110.84;5053001;28;45426;-63
2022/08/09 01:35:09;;;;;;;;;7.00;7.00;;;;;22.40;46.40;102107.59;5049767;28;45435;-63
2022/08/09 01:37:37;;;;;;;;;6.75;5.25;;;;;22.38;46.61;102101.53;5052468;28;45609;-63
2022/08/09 01:40:08;;;;;;;;;13.50;10.00;;;;;22.41;46.53;102106.59;5053872;28;45453;-63
2022/08/09 01:42:34;;;;;;;;;11.25;10.50;;;;;22.39;46.71;102100.53;5051767;28;45185;-63
2022/08/09 01:45:01;;;;;;;;;6.00;5.00;;;;;22.38;46.55;102097.00;5051570;28;45320;-63
2022/08/09 01:47:28;;;;;;;;;5.75;5.25;;;;;22.40;46.85;102105.75;5051625;28;45378;-63
2022/08/09 01:49:56;;;;;;;;;6.75;5.75;;;;;22.41;46.91;102098.56;5052383;28;45437;-63
2022/08/09 01:52:23;;;;;;;;;7.50;6.00;;;;;22.43;46.71;102101.94;5053417;28;45221;-64
2022/08/09 01:54:54;;;;;;;;;7.00;7.00;;;;;22.41;46.95;102094.03;5053871;28;45607;-63
2022/08/09 01:57:26;;;;;;;;;8.00;6.00;;;;;22.41;46.75;102102.09;5034711;28;47799;-63
2022/08/09 01:59:55;;;;;;;;;6.25;6.25;;;;;22.38;47.02;102112.25;5050686;28;45339;-63
2022/08/09 02:02:29;;;;;;;;;6.50;5.00;;;;;22.36;47.24;102095.44;5042834;28;45312;-63
2022/08/09 02:04:58;;;;;;;;;7.75;6.50;;;;;22.37;47.17;102105.19;5043336;28;45339;-63
2022/08/09 02:07:25;;;;;;;;;6.00;5.00;;;;;22.35;47.04;102099.94;5042919;28;46105;-63
2022/08/09 02:09:56;;;;;;;;;9.75;8.75;;;;;22.32;47.27;102102.06;5042965;28;45272;-63
2022/08/09 02:12:24;;;;;;;;;7.50;7.00;;;;;22.27;47.17;102099.75;5043016;28;45233;-63
2022/08/09 02:14:53;;;;;;;;;6.00;5.00;;;;;22.27;47.44;102100.59;5043303;28;45544;-63
2022/08/09 02:17:23;;;;;;;;;9.75;8.00;;;;;22.27;47.29;102097.91;5049890;28;45272;-63
2022/08/09 02:19:49;;;;;;;;;6.25;4.75;;;;;22.25;47.44;102093.69;5062872;28;45283;-63
2022/08/09 02:22:37;;;;;;;;;5.25;5.25;;;;;22.27;47.41;102095.22;5063266;28;45316;-63
2022/08/09 02:25:13;;;;;;;;;7.00;5.75;;;;;22.25;47.40;102093.69;5063310;28;45437;-63
2022/08/09 02:27:44;;;;;;;;;8.75;7.50;;;;;22.22;47.60;102102.84;5063100;28;45283;-63
2022/08/09 02:30:11;;;;;;;;;6.00;6.00;;;;;22.19;47.43;102095.06;5062939;28;45406;-63
2022/08/09 02:32:42;;;;;;;;;7.00;4.75;;;;;22.17;47.62;102091.66;5062642;28;45327;-64
2022/08/09 02:35:16;;;;;;;;;6.00;6.00;;;;;22.17;47.70;102088.13;5056499;28;45531;-64
2022/08/09 02:37:43;;;;;;;;;7.25;6.75;;;;;22.16;47.78;102097.16;5057288;28;45234;-63
2022/08/09 02:40:15;;;;;;;;;7.00;6.50;;;;;22.14;47.78;102099.13;5062973;28;45461;-64
2022/08/09 02:42:43;;;;;;;;;5.00;5.00;;;;;22.14;48.08;102091.09;5046891;28;45260;-63
2022/08/09 02:45:44;;;;;;;;;6.00;6.00;;;;;22.14;47.79;102094.63;5042789;28;45243;-63
2022/08/09 02:48:15;;;;;;;;;6.00;5.50;;;;;22.13;47.91;102092.06;4980272;28;45295;-63
2022/08/09 02:50:46;;;;;;;;;8.00;6.25;;;;;22.11;47.93;102091.34;5031803;28;45359;-63
2022/08/09 02:53:28;;;;;;;;;7.75;7.75;;;;;22.11;47.94;102091.34;5042900;28;45314;-63
2022/08/09 02:55:57;;;;;;;;;6.75;6.75;;;;;22.09;47.82;102086.09;5042546;28;45502;-63
2022/08/09 02:58:25;;;;;;;;;5.75;5.75;;;;;22.05;48.03;102083.81;5035440;28;46903;-63
2022/08/09 03:00:52;;;;;;;;;8.25;7.75;;;;;22.02;48.22;102084.91;5044079;28;45483;-64
2022/08/09 03:03:19;;;;;;;;;7.75;5.50;;;;;22.00;48.08;102089.56;5042043;28;45432;-63
2022/08/09 03:05:46;;;;;;;;;5.00;5.00;;;;;21.97;48.33;102087.16;5042247;28;45498;-63
2022/08/09 03:08:13;;;;;;;;;5.00;5.00;;;;;21.95;48.33;102086.41;5036284;28;46767;-63
2022/08/09 03:10:41;;;;;;;;;6.75;6.50;;;;;21.90;48.16;102089.50;5043027;28;45282;-63
2022/08/09 03:13:07;;;;;;;;;7.00;5.75;;;;;21.85;48.16;102086.34;5042391;28;45400;-63
2022/08/09 03:15:33;;;;;;;;;10.75;6.25;;;;;21.83;48.42;102087.47;5042227;28;45585;-64
2022/08/09 03:18:00;;;;;;;;;7.00;5.50;;;;;21.76;48.56;102079.09;5041675;28;45447;-64
2022/08/09 03:20:26;;;;;;;;;5.00;4.50;;;;;21.74;48.94;102081.91;5041881;28;45284;-63
2022/08/09 03:22:53;;;;;;;;;7.50;7.00;;;;;21.77;48.89;102099.56;5042260;28;45248;-63
2022/08/09 03:25:19;;;;;;;;;7.50;6.25;;;;;21.76;48.70;102091.66;5042239;28;45165;-63
2022/08/09 03:27:49;;;;;;;;;8.50;7.50;;;;;21.67;49.02;102087.94;5041976;28;45310;-63
2022/08/09 03:30:15;;;;;;;;;8.25;7.25;;;;;21.62;48.93;102090.16;5049016;28;45325;-64
2022/08/09 03:32:41;;;;;;;;;6.75;6.00;;;;;21.57;48.97;102078.97;5060839;28;45295;-65
2022/08/09 03:35:11;;;;;;;;;7.25;5.25;;;;;21.50;49.13;102085.84;5055524;28;45441;-63
2022/08/09 03:37:40;;;;;;;;;7.00;7.00;;;;;21.50;49.11;102083.16;5055481;28;45304;-63
2022/08/09 03:40:06;;;;;;;;;10.25;6.50;;;;;21.52;49.60;102086.53;5061846;28;45394;-63
2022/08/09 03:42:32;;;;;;;;;7.25;7.25;;;;;21.48;49.53;102085.09;5047487;28;45237;-63
2022/08/09 03:44:57;;;;;;;;;7.50;7.25;;;;;21.42;49.58;102087.31;5031642;28;45452;-63
2022/08/09 03:47:23;;;;;;;;;6.00;6.00;;;;;21.42;49.54;102078.44;5047071;28;45506;-63
2022/08/09 03:49:50;;;;;;;;;3.25;3.25;;;;;21.41;49.95;102082.09;5041720;28;45171;-64
2022/08/09 03:52:18;;;;;;;;;8.00;7.00;;;;;21.40;49.89;102078.53;5041742;28;45284;-63
2022/08/09 03:54:46;;;;;;;;;8.75;8.25;;;;;21.43;49.50;102082.81;5041745;28;45490;-64
2022/08/09 03:57:14;;;;;;;;;5.75;4.75;;;;;21.42;49.97;102083.78;5036896;28;46867;-63
2022/08/09 03:59:43;;;;;;;;;9.00;8.00;;;;;21.39;49.69;102089.41;5041396;28;45316;-63
2022/08/09 04:02:08;;;;;;;;;5.25;5.25;;;;;21.37;49.91;102077.97;5041045;28;45374;-63
2022/08/09 04:04:34;;;;;;;;;7.00;7.00;;;;;21.36;49.91;102086.97;5041513;28;45493;-64
2022/08/09 04:07:01;;;;;;;;;7.25;5.00;;;;;21.34;50.02;102083.59;5041208;28;45221;-63
2022/08/09 04:09:27;;;;;;;;;6.75;6.00;;;;;21.26;49.71;102088.72;5041290;28;45186;-63
2022/08/09 04:12:45;;;;;;;;;7.25;5.50;;;;;21.26;49.82;102088.72;5041256;28;45278;-63
2022/08/09 04:15:12;;;;;;;;;7.25;3.50;;;;;21.25;50.10;102100.38;5029266;28;45680;-63
2022/08/09 04:17:39;;;;;;;;;9.00;6.25;;;;;21.19;50.20;102107.13;5041046;28;46249;-62
2022/08/09 04:20:05;;;;;;;;;6.00;6.00;;;;;21.22;50.35;102109.53;5041132;28;45249;-63
2022/08/09 04:22:31;;;;;;;;;6.00;6.00;;;;;21.25;50.17;102105.72;5041301;28;45308;-63
2022/08/09 04:24:57;;;;;;;;;7.00;5.25;;;;;21.23;50.21;102092.47;5041256;28;45308;-63
2022/08/09 04:27:22;;;;;;;;;7.25;6.00;;;;;21.24;50.58;102099.53;5031996;28;47013;-63
2022/08/09 04:29:48;;;;;;;;;10.00;6.50;;;;;21.27;50.16;102103.81;5045430;28;45178;-63
2022/08/09 04:32:13;;;;;;;;;6.25;6.00;;;;;21.24;50.58;102104.03;5040851;28;45281;-63
2022/08/09 04:34:39;;;;;;;;;7.00;7.00;;;;;21.22;50.38;102104.16;5041141;28;45280;-63
2022/08/09 04:37:04;;;;;;;;;9.25;7.25;;;;;21.19;50.82;102113.31;5040964;28;46106;-63
2022/08/09 04:39:30;;;;;;;;;7.50;6.00;;;;;21.12;50.73;102106.75;5040883;28;45515;-63
2022/08/09 04:41:55;;;;;;;;;7.00;6.00;;;;;21.10;50.39;102115.91;5049014;28;45271;-63
2022/08/09 04:44:21;;;;;;;;;7.00;6.25;;;;;21.11;50.75;102109.56;5040757;28;45345;-63
2022/08/09 04:46:47;;;;;;;;;7.75;7.00;;;;;21.10;50.79;102110.56;5040245;28;45443;-63
2022/08/09 04:49:12;;;;;;;;;6.75;6.75;;;;;21.12;51.00;102106.75;5040584;28;45567;-63
2022/08/09 04:51:37;;;;;;;;;6.00;6.00;;;;;21.12;50.77;102112.13;5040893;28;45468;-62
2022/08/09 04:54:03;;;;;;;;;10.75;7.00;;;;;21.10;51.03;102108.72;5040745;28;45276;-63
2022/08/09 04:56:29;;;;;;;;;8.25;6.75;;;;;21.13;51.00;102111.13;5028108;28;46899;-63
2022/08/09 04:58:55;;;;;;;;;9.50;6.00;;;;;21.16;51.03;102116.25;5040659;28;45519;-63
2022/08/09 05:01:20;;;;;;;;;8.75;6.00;;;;;21.17;50.62;102120.66;5031331;28;45276;-62
2022/08/09 05:03:46;;;;;;;;;8.25;6.00;;;;;21.15;50.98;102122.56;5045012;28;45513;-63
2022/08/09 05:06:12;;;;;;;;;9.25;8.00;;;;;21.14;50.83;102123.56;5040615;28;45463;-63
2022/08/09 05:08:37;;;;;;;;;6.50;6.50;;;;;21.16;50.93;102121.59;5040371;28;45365;-62
2022/08/09 05:11:03;;;;;;;;;7.75;7.50;;;;;21.14;51.04;102126.25;5040751;28;45525;-63
2022/08/09 05:13:29;;;;;;;;;9.25;8.00;;;;;21.14;51.05;102125.38;5040653;28;45229;-63
2022/08/09 05:15:54;;;;;;;;;8.25;7.00;;;;;21.15;50.97;102121.72;5040213;28;45950;-62
2022/08/09 05:18:20;;;;;;;;;7.25;4.50;;;;;21.12;51.07;102114.81;5040093;28;45427;-62
2022/08/09 05:20:46;;;;;;;;;6.00;6.00;;;;;21.08;51.30;102116.00;5040463;28;45510;-62
2022/08/09 05:23:12;;;;;;;;;7.75;6.25;;;;;21.07;51.02;102119.69;5036072;28;45330;-63
2022/08/09 05:25:37;;;;;;;;;7.00;6.50;;;;;21.11;51.22;102122.97;5040302;28;45405;-63
2022/08/09 05:28:03;;;;;;;;;8.00;8.00;;;;;21.13;51.11;102126.38;5040304;28;45277;-62
2022/08/09 05:30:28;;;;;;;;;8.25;6.00;;;;;21.15;50.84;102121.72;5040446;28;45344;-63
2022/08/09 05:32:54;;;;;;;;;7.75;7.25;;;;;21.14;51.19;102125.38;5035534;28;45341;-63
2022/08/09 05:35:20;;;;;;;;;8.00;7.75;;;;;21.15;51.53;102127.09;5040164;28;45230;-62
2022/08/09 05:37:47;;;;;;;;;7.00;5.50;;;;;21.17;51.24;102130.47;5039843;28;45300;-63
2022/08/09 05:40:13;;;;;;;;;8.25;6.50;;;;;21.17;51.09;102135.84;5043434;28;45423;-63
2022/08/09 05:42:40;;;;;;;;;8.00;6.75;;;;;21.18;51.35;102138.44;5045267;28;45308;-62
2022/08/09 05:45:06;;;;;;;;;8.50;6.50;;;;;21.20;51.17;102138.28;5030368;28;47763;-63
2022/08/09 05:47:32;;;;;;;;;9.00;6.00;;;;;21.19;50.90;102148.16;5044220;28;45436;-62
2022/08/09 05:49:57;;;;;;;;;6.75;6.50;;;;;21.20;51.22;102146.34;5039821;28;45388;-62
2022/08/09 05:52:23;;;;;;;;;8.00;6.00;;;;;21.24;51.04;102144.25;5040004;28;45257;-62
2022/08/09 05:54:48;;;;;;;;;4.75;4.50;;;;;21.32;51.06;102147.16;5040490;28;46024;-62
2022/08/09 05:57:14;;;;;;;;;8.25;6.50;;;;;21.37;50.63;102143.16;5043189;28;45237;-62
2022/08/09 05:59:40;;;;;;;;;8.00;7.00;;;;;21.46;50.74;102139.69;5043438;28;45570;-62
2022/08/09 06:02:05;;;;;;;;;6.75;5.75;;;;;21.49;50.98;102146.66;5036828;28;45320;-62
2022/08/09 06:04:31;;;;;;;;;8.50;7.00;;;;;21.52;50.88;102150.91;5043239;28;45989;-63
2022/08/09 06:06:56;;;;;;;;;9.75;9.25;;;;;21.51;50.59;102151.88;5043079;28;45224;-63
2022/08/09 06:09:22;;;;;;;;;7.25;7.25;;;;;21.49;50.85;102143.09;5043250;28;45469;-64
2022/08/09 06:11:47;;;;;;;;;6.50;5.50;;;;;21.53;50.85;102148.09;5043180;28;45324;-63
2022/08/09 06:14:13;;;;;;;;;9.00;7.50;;;;;21.58;50.61;102151.25;5042951;28;45451;-63
2022/08/09 06:16:38;;;;;;;;;10.75;8.00;;;;;21.63;50.50;102149.00;5042400;28;45276;-63
2022/08/09 06:19:04;;;;;;;;;7.00;6.00;;;;;21.68;50.91;102162.91;5043331;28;45344;-63
2022/08/09 06:21:30;;;;;;;;;8.25;6.50;;;;;21.69;50.75;102161.06;5042896;28;45483;-63
2022/08/09 06:23:55;;;;;;;;;7.00;6.00;;;;;21.71;50.46;102165.31;5043008;28;46180;-63
2022/08/09 06:26:22;;;;;;;;;7.25;6.25;;;;;21.73;50.44;102162.53;5042843;28;45394;-63
2022/08/09 06:28:52;;;;;;;;;8.00;7.50;;;;;21.84;50.32;102172.34;5043113;28;45486;-63
2022/08/09 06:31:18;;;;;;;;;9.00;7.25;;;;;21.93;50.60;102176.91;5042602;28;45288;-64
2022/08/09 06:33:43;;;;;;;;;8.00;8.00;;;;;21.93;50.40;102182.28;5042611;28;45440;-63
2022/08/09 06:36:09;;;;;;;;;8.00;7.75;;;;;21.94;50.34;102178.63;5042578;28;45407;-63
2022/08/09 06:38:35;;;;;;;;;11.75;8.75;;;;;22.00;50.02;102181.66;5042888;28;45199;-64
2022/08/09 06:41:00;;;;;;;;;7.00;6.75;;;;;22.05;50.03;102180.41;5037865;28;45417;-64
2022/08/09 06:43:26;;;;;;;;;8.00;7.25;;;;;22.14;50.14;102179.66;5042757;28;45937;-63
2022/08/09 06:45:51;;;;;;;;;8.25;7.75;;;;;22.29;50.19;102183.72;5037713;28;45407;-63
2022/08/09 06:48:17;;;;;;;;;7.75;7.75;;;;;22.41;49.86;102174.59;5042406;28;45434;-63
2022/08/09 06:50:43;;;;;;;;;9.75;7.25;;;;;22.43;49.61;102185.19;5042456;28;45370;-63
2022/08/09 06:53:09;;;;;;;;;7.00;7.00;;;;;22.40;49.39;102182.78;5042729;28;45459;-63
2022/08/09 06:55:34;;;;;;;;;7.00;7.00;;;;;22.41;49.81;102195.22;5042241;28;45519;-63
2022/08/09 06:58:00;;;;;;;;;10.00;7.00;;;;;22.37;49.08;102183.91;5042658;28;45311;-63
2022/08/09 07:00:26;;;;;;;;;6.00;6.00;;;;;22.43;49.11;102182.50;5042222;28;45570;-63
2022/08/09 07:02:52;;;;;;;;;10.50;8.25;;;;;22.47;49.02;102186.63;5042030;28;45336;-62
2022/08/09 07:05:18;;;;;;;;;10.25;8.00;;;;;22.47;49.41;102175.91;5041909;28;45216;-63
2022/08/09 07:07:43;;;;;;;;;8.75;7.25;;;;;22.45;49.07;102186.78;5042422;28;45245;-63
2022/08/09 07:10:10;;;;;;;;;7.25;5.50;;;;;22.47;49.43;102192.84;5042238;28;45162;-63
2022/08/09 07:12:36;;;;;;;;;7.75;6.00;;;;;22.52;49.25;102185.25;5024361;28;46043;-64
2022/08/09 07:15:03;;;;;;;;;11.50;8.50;;;;;22.55;49.24;102195.72;5037311;28;45352;-63
2022/08/09 07:17:28;;;;;;;;;10.00;7.75;;;;;22.57;49.13;102188.38;5042016;28;45444;-63
2022/08/09 07:19:54;;;;;;;;;8.00;7.00;;;;;22.58;49.07;102197.28;5041886;28;45308;-63
2022/08/09 07:22:20;;;;;;;;;7.75;7.00;;;;;22.62;49.19;102203.25;5042038;28;46207;-63
2022/08/09 07:24:46;;;;;;;;;7.00;6.25;;;;;22.65;49.00;102200.28;5041583;28;45240;-63
2022/08/09 07:27:11;;;;;;;;;10.00;9.25;;;;;22.63;48.72;102199.59;5040796;28;45330;-63
2022/08/09 07:29:37;;;;;;;;;8.25;7.00;;;;;22.68;48.94;102194.66;5041954;28;45178;-63
2022/08/09 07:32:03;;;;;;;;;6.75;5.75;;;;;22.74;48.91;102199.47;5041429;28;45268;-63
2022/08/09 07:34:29;;;;;;;;;11.75;6.75;;;;;22.81;48.67;102193.44;5041688;28;45337;-63
2022/08/09 07:36:55;;;;;;;;;7.25;5.75;;;;;22.89;48.53;102190.09;5042180;28;45444;-63
2022/08/09 07:39:20;;;;;;;;;7.75;7.00;;;;;22.95;48.75;102199.47;5041580;28;45333;-63
2022/08/09 07:41:46;;;;;;;;;8.00;8.00;;;;;22.97;48.28;102192.97;5050110;28;45999;-64
2022/08/09 07:44:12;;;;;;;;;6.75;6.75;;;;;23.00;48.76;102189.19;5042246;28;45475;-63
2022/08/09 07:46:37;;;;;;;;;7.00;7.00;;;;;23.01;48.18;102191.72;5056421;28;45807;-63
2022/08/09 07:49:03;;;;;;;;;9.50;8.00;;;;;23.06;48.38;102189.44;5061684;28;45442;-63
2022/08/09 07:51:29;;;;;;;;;8.00;7.00;;;;;23.09;48.16;102183.81;5057338;28;45384;-63
2022/08/09 07:53:55;;;;;;;;;8.00;6.25;;;;;23.15;47.98;102190.50;5061453;28;45470;-63
2022/08/09 07:56:20;;;;;;;;;7.75;7.75;;;;;23.20;47.99;102187.38;5058443;28;45335;-63
2022/08/09 07:58:46;;;;;;;;;6.00;6.00;;;;;23.22;48.12;102186.22;5043499;28;45517;-63
2022/08/09 08:01:11;;;;;;;;;8.50;7.50;;;;;23.27;48.13;102184.00;5052660;28;46036;-63
2022/08/09 08:03:37;;;;;;;;;7.75;7.75;;;;;23.30;48.14;102189.13;5043580;28;45497;-63
2022/08/09 08:06:04;;;;;;;;;10.75;8.50;;;;;23.36;47.82;102185.84;5058675;28;45552;-62
2022/08/09 08:08:29;;;;;;;;;7.25;5.50;;;;;23.40;47.76;102195.34;5061357;28;45411;-62
2022/08/09 08:10:55;;;;;;;;;7.00;7.00;;;;;23.45;47.57;102192.22;5060765;28;45284;-63
2022/08/09 08:13:20;;;;;;;;;6.75;6.75;;;;;23.50;47.71;102186.44;5061066;28;45447;-62
2022/08/09 08:15:46;;;;;;;;;10.25;9.00;;;;;23.57;46.98;102190.28;5059997;28;45447;-61
2022/08/09 08:18:11;;;;;;;;;8.50;6.75;;;;;23.63;47.28;102185.22;5046689;28;45482;-62
2022/08/09 08:20:37;;;;;;;;;8.75;7.50;;;;;23.68;47.04;102187.47;5040785;28;45378;-62
2022/08/09 08:23:04;;;;;;;;;7.00;6.00;;;;;23.73;47.17;102187.91;5033095;28;45403;-62
2022/08/09 08:25:30;;;;;;;;;8.25;6.00;;;;;23.80;46.66;102188.19;5041038;28;45475;-63
2022/08/09 08:27:56;;;;;;;;;9.25;8.75;;;;;23.88;46.71;102191.03;5040556;28;45228;-63
2022/08/09 08:30:21;;;;;;;;;8.00;8.00;;;;;23.97;46.34;102186.63;5040449;28;45400;-63
2022/08/09 08:32:47;;;;;;;;;9.50;7.25;;;;;24.01;46.52;102188.88;5040268;28;45142;-63
2022/08/09 08:35:13;;;;;;;;;6.00;6.00;;;;;24.07;45.96;102185.59;5040516;28;45369;-63
2022/08/09 08:37:38;;;;;;;;;13.50;8.50;;;;;24.16;46.41;102184.75;5039788;28;45381;-63
2022/08/09 08:40:05;;;;;;;;;10.75;7.00;;;;;24.22;45.69;102194.94;5028748;28;47574;-63
2022/08/09 08:42:32;;;;;;;;;7.00;7.00;;;;;24.29;45.59;102192.53;5028457;28;45327;-63
2022/08/09 08:44:59;;;;;;;;;10.25;8.00;;;;;24.35;45.25;102191.13;5060807;28;45490;-63
2022/08/09 08:47:26;;;;;;;;;9.75;7.25;;;;;24.39;45.36;102179.06;5058808;28;45484;-64
2022/08/09 08:49:54;;;;;;;;;7.00;7.00;;;;;24.45;45.32;102181.16;5042612;28;47007;-63
2022/08/09 08:52:25;;;;;;;;;9.25;7.00;;;;;24.50;44.79;102187.81;5060112;28;45434;-63
2022/08/09 08:54:52;;;;;;;;;8.25;8.25;;;;;24.56;45.26;102182.81;5060644;28;45283;-63
2022/08/09 08:57:22;;;;;;;;;8.50;6.00;;;;;24.63;44.90;102179.41;5060167;28;45418;-64
2022/08/09 08:59:50;;;;;;;;;9.25;8.00;;;;;24.73;44.57;102177.53;5033211;28;47003;-64
2022/08/09 09:02:29;;;;;;;;;8.00;7.25;;;;;24.79;44.38;102179.63;5051207;28;45268;-64
2022/08/09 09:04:57;;;;;;;;;8.00;7.00;;;;;24.87;44.25;102183.41;5040487;28;45300;-63
2022/08/09 09:07:29;;;;;;;;;7.25;6.75;;;;;24.98;43.65;102185.94;5039865;28;45513;-62
2022/08/09 09:09:57;;;;;;;;;7.50;6.25;;;;;25.06;43.57;102177.97;5022405;28;46579;-64
2022/08/09 09:12:26;;;;;;;;;8.00;7.00;;;;;25.15;44.11;102179.75;5041801;28;45956;-63
2022/08/09 09:14:52;;;;;;;;;7.00;7.00;;;;;25.25;43.78;102185.09;5042026;28;45240;-63
2022/08/09 09:17:18;;;;;;;;;7.50;7.25;;;;;25.34;43.93;102184.16;5039794;28;45444;-64
2022/08/09 09:19:45;;;;;;;;;11.50;7.75;;;;;25.39;43.65;102181.03;5035265;28;45576;-64
2022/08/09 09:22:13;;;;;;;;;7.00;7.00;;;;;25.45;43.43;102181.25;5052931;28;45370;-63
2022/08/09 09:24:58;;;;;;;;;9.00;9.00;;;;;25.50;43.02;102183.47;5035488;28;45285;-65
2022/08/09 09:27:26;;;;;;;;;7.75;6.75;;;;;25.50;42.93;102173.53;5021134;28;45315;-64
2022/08/09 09:29:53;;;;;;;;;4.25;4.00;;;;;25.57;42.82;102173.78;5040238;28;45313;-64
2022/08/09 09:32:21;;;;;;;;;8.50;6.50;;;;;25.63;42.49;102175.88;5042773;28;45412;-64
2022/08/09 09:35:09;;;;;;;;;15.25;13.25;;;;;25.76;42.88;102170.97;5043292;28;45403;-64
2022/08/09 09:37:37;;;;;;;;;12.25;9.50;;;;;25.86;42.22;102174.41;5043174;28;45313;-64
2022/08/09 09:40:04;;;;;;;;;7.00;7.00;;;;;25.95;42.60;102169.94;5045293;28;45276;-64
2022/08/09 09:42:29;;;;;;;;;6.75;6.50;;;;;26.05;42.39;102169.81;5049256;28;45288;-64
2022/08/09 09:45:00;;;;;;;;;6.50;6.00;;;;;26.15;42.17;102165.19;5043431;28;45195;-64
2022/08/09 09:47:27;;;;;;;;;5.00;5.00;;;;;26.23;41.66;102173.34;5042454;28;45408;-63
2022/08/09 09:49:56;;;;;;;;;6.50;6.25;;;;;26.27;41.43;102168.47;5043065;28;46188;-63
2022/08/09 09:52:22;;;;;;;;;7.00;7.00;;;;;26.32;41.37;102164.28;5037586;28;45550;-64
2022/08/09 09:54:49;;;;;;;;;7.00;6.25;;;;;26.40;41.25;102166.22;5042979;28;45388;-64
2022/08/09 09:57:19;;;;;;;;;10.50;10.00;;;;;26.49;40.89;102156.31;5042756;28;45415;-63
2022/08/09 09:59:46;;;;;;;;;58.50;45.25;;;;;26.58;40.93;102161.59;5042364;28;46928;-64
2022/08/09 10:02:13;;;;;;;;;8.00;7.25;;;;;26.67;40.76;102157.06;5042134;28;45489;-64
2022/08/09 10:04:39;;;;;;;;;9.75;8.75;;;;;26.75;40.20;102151.69;5042776;28;45314;-63
2022/08/09 10:07:19;;;;;;;;;7.25;7.25;;;;;26.83;40.07;102161.69;5042348;28;45470;-63
2022/08/09 10:09:50;;;;;;;;;21.25;20.25;;;;;26.86;40.46;102153.25;5041987;28;45179;-64
2022/08/09 10:12:33;;;;;;;;;12.50;11.75;;;;;26.91;40.18;102159.03;5038987;28;45282;-64
2022/08/09 10:15:10;;;;;;;;;9.00;7.00;;;;;26.97;39.97;102152.97;5024988;28;45440;-64
2022/08/09 10:17:37;;;;;;;;;13.75;12.75;;;;;27.02;39.79;102150.63;5042358;28;45340;-63
2022/08/09 10:20:18;;;;;;;;;13.75;13.75;;;;;27.06;39.71;102146.59;5042512;28;45261;-63
2022/08/09 10:22:45;;;;;;;;;55.25;43.00;;;;;27.14;39.73;102160.16;5042541;28;45458;-64
2022/08/09 10:25:11;;;;;;;;;7.75;6.75;;;;;27.21;39.34;102147.66;5042962;28;45291;-63
2022/08/09 10:27:37;;;;;;;;;8.00;8.00;;;;;27.30;39.16;102144.97;5034671;28;45637;-63
2022/08/09 10:30:05;;;;;;;;;7.25;5.25;;;;;27.37;39.06;102146.00;5041102;28;46666;-64
2022/08/09 10:32:33;;;;;;;;;8.00;7.00;;;;;27.43;39.05;102140.75;5041937;28;45321;-64
2022/08/09 10:34:59;;;;;;;;;7.00;6.50;;;;;27.53;38.91;102146.00;5042589;28;45391;-64
2022/08/09 10:37:26;;;;;;;;;9.00;7.50;;;;;27.61;38.44;102131.63;5024432;28;45368;-64
2022/08/09 10:39:52;;;;;;;;;7.50;6.25;;;;;27.66;37.96;102156.34;5042309;28;46232;-64
2022/08/09 10:42:18;;;;;;;;;10.00;7.25;;;;;27.76;37.91;102147.06;5049355;28;45395;-64
2022/08/09 10:44:57;;;;;;;;;8.75;7.25;;;;;27.85;38.19;102142.50;5042393;28;45304;-64
2022/08/09 10:47:36;;;;;;;;;7.75;6.00;;;;;27.89;37.66;102135.72;5041619;28;45329;-64
2022/08/09 10:50:26;;;;;;;;;7.25;7.00;;;;;27.89;37.59;102132.19;5042301;28;45470;-64
2022/08/09 10:53:04;;;;;;;;;8.50;8.50;;;;;27.91;37.31;102143.69;5041202;28;45459;-65
2022/08/09 10:55:31;;;;;;;;;7.00;7.00;;;;;27.95;37.26;102131.47;5037315;28;45420;-64
2022/08/09 10:57:57;;;;;;;;;7.25;7.25;;;;;28.05;37.31;102134.88;5041688;28;45270;-64
2022/08/09 11:00:35;;;;;;;;;8.00;8.00;;;;;28.15;37.03;102129.25;5023473;28;46868;-64
2022/08/09 11:03:02;;;;;;;;;4.50;4.50;;;;;28.22;36.72;102120.25;5041776;28;45366;-64
2022/08/09 11:05:28;;;;;;;;;7.50;6.25;;;;;28.29;36.55;102115.00;5042021;28;45475;-64
2022/08/09 11:07:53;;;;;;;;;14.00;10.00;;;;;28.36;36.51;102121.44;5033433;28;45519;-64
2022/08/09 11:10:58;;;;;;;;;9.00;6.75;;;;;28.45;36.73;102124.97;5040228;28;47017;-64
2022/08/09 11:13:23;;;;;;;;;8.25;6.25;;;;;28.59;36.53;102127.78;5041070;28;45504;-65
2022/08/09 11:15:49;;;;;;;;;7.00;6.00;;;;;28.64;35.95;102119.13;5041428;28;45482;-64
2022/08/09 11:18:44;;;;;;;;;7.75;7.00;;;;;28.71;36.26;102114.69;5041692;28;45394;-64
2022/08/09 11:21:48;;;;;;;;;12.00;9.50;;;;;28.79;36.20;102116.50;5041541;28;45376;-64
2022/08/09 11:24:13;;;;;;;;;2.00;2.00;;;;;28.81;35.65;102109.88;5052076;28;45329;-64
2022/08/09 11:26:39;;;;;;;;;8.75;7.00;;;;;28.90;35.05;102113.41;5061449;28;45549;-65
2022/08/09 11:29:05;;;;;;;;;6.00;6.00;;;;;28.98;35.01;102115.25;5062012;28;45513;-65